69°F
Crown Heights Area, Poughkeepsie, NY, USA
UpdatedSep-25-2017 02:05 
 

Nearby METAR Reports

 

KPOU - Poughkeepsie, New York, USA
Distance from station: ENE 2mi, 4km
Updated: Mon, 25-Sep-2017 1:53am EDT
Clear
Clear
 Wind from calm
Wind: Calm
Temperature: 64°F , 18°C
Dew Point: 63°F , 17°C
Humidity: 94%
Barometer: 30.04 inHg , 1017.3 hPa
Clouds: Clear
Visibility: 8 miles , 13 km
2017/09/25 05:53 KPOU 250553Z AUTO 00000KT 8SM CLR 18/17 A3004 RMK AO2 SLP170 T01830172 10228 20178 56002
KSWF - Newburgh/Stewart, New York, USA
Distance from station: SW 12mi, 19km
Updated: Mon, 25-Sep-2017 1:45am EDT
Clear
Clear
 Wind from calm
Wind: Calm
Temperature: 70°F , 21°C
Dew Point: 68°F , 20°C
Humidity: 94%
Barometer: 30.07 inHg , 1018.3 hPa
Clouds: Clear
Visibility: 10 miles , 16 km
2017/09/25 05:45 KSWF 250545Z 00000KT 10SM SKC 21/20 A3007
 
KMGJ - Montgomery, New York, USA
Distance from station: WSW 19mi, 31km
Updated: Mon, 25-Sep-2017 1:54am EDT
Mist, Few clouds
Mist, Few clouds
 Wind from calm
Wind: Calm
Temperature: 64°F , 18°C
Dew Point: 64°F , 18°C
Humidity: 100%
Barometer: 30.06 inHg , 1017.9 hPa
Summary: Mist
Clouds: Few Clouds
Visibility: 4 miles , 6 km
Cloud details: Few Clouds 300 ft
2017/09/25 05:54 KMGJ 250554Z AUTO 00000KT 4SM BR FEW003 18/18 A3006 RMK AO2 SLP175 T01830178 10228 20178 56003
KDXR - Danbury, Connecticut, USA
Distance from station: SE 29mi, 46km
Updated: Mon, 25-Sep-2017 1:53am EDT
Clear
Clear
 Wind from calm
Wind: Calm
Temperature: 66°F , 19°C
Dew Point: 64°F , 18°C
Humidity: 94%
Barometer: 30.07 inHg , 1018.3 hPa
Clouds: Clear
Visibility: 8 miles , 13 km
2017/09/25 05:53 KDXR 250553Z AUTO 00000KT 8SM CLR 19/18 A3007 RMK AO2 SLP177 T01890178 10233 20183 58005
 
KHPN - White Plains, New York, USA
Distance from station: SSE 40mi, 64km
Updated: Mon, 25-Sep-2017 1:56am EDT
Clear
Clear
 Wind from WNW
Wind: WNW 6 mph , 9 km/h
Temperature: 70°F , 21°C
Dew Point: 66°F , 19°C
Humidity: 88%
Barometer: 30.04 inHg , 1017.3 hPa
Clouds: Clear
Visibility: 10 miles , 16 km
2017/09/25 05:56 KHPN 250556Z 30005KT 10SM CLR 21/19 A3004 RMK AO2 SLP164 T02060189 10233 20200 58008
KOXC - Oxford/Waterbury, Connecticut, USA
Distance from station: ESE 42mi, 68km
Updated: Mon, 25-Sep-2017 1:51am EDT
Clear
Clear
 Wind from N
Wind: N 5 mph , 7 km/h
Temperature: 66°F , 19°C
Dew Point: 64°F , 18°C
Humidity: 94%
Barometer: 30.07 inHg , 1018.3 hPa
Clouds: Clear
Visibility: 10 miles , 16 km
2017/09/25 05:51 KOXC 250551Z AUTO 35004KT 10SM CLR 19/18 A3007 RMK AO2 SLP187 T01890178 10228 20183 57006
 
KMSV - Monticello, New York, USA
Distance from station: W 45mi, 72km
Updated: Mon, 25-Sep-2017 1:56am EDT
Clear
Clear
 Wind from NNW
Wind: NNW 6 mph , 9 km/h
Temperature: 66°F , 19°C
Dew Point: 63°F , 17°C
Humidity: 88%
Barometer: 30.13 inHg , 1020.3 hPa
Clouds: Clear
Visibility: 10 miles , 16 km
2017/09/25 05:56 KMSV 250556Z AUTO 34005KT 10SM CLR 19/17 A3013 RMK AO2 SLP192 T01890172 10250 20189 58005
KFWN - Sussex, New Jersey, USA
Distance from station: SW 47mi, 75km
Updated: Mon, 25-Sep-2017 1:56am EDT
Mist, Clear
Mist, Clear
 Wind from calm
Wind: Calm
Temperature: 64°F , 18°C
Dew Point: 64°F , 18°C
Humidity: 100%
Barometer: 30.06 inHg , 1017.9 hPa
Summary: Mist
Clouds: Clear
Visibility: 2 miles , 3 km
2017/09/25 05:56 KFWN 250556Z AUTO 00000KT 2SM BR CLR 18/18 A3006 RMK AO2 T01780178